Time,TemperatureF,DewpointF,PressureIn,WindDirection,WindDirectionDegrees,WindSpeedMPH,WindSpeedGustMPH,Humidity,HourlyPrecipIn,Conditions,Clouds,dailyrainin,SoftwareType,DateUTC
2013-04-12 00:03:00,46.4,38.2,29.77,East,90,0.0,-999.0,73,-99.99,,,0.00,Acu-Link.com,2013-04-12 07:03:00,
2013-04-12 00:18:00,46.4,38.6,29.75,NNE,22,0.0,-999.0,74,-99.99,,,0.00,Acu-Link.com,2013-04-12 07:18:00,
2013-04-12 00:33:00,46.2,39.1,29.76,NE,45,0.0,-999.0,76,-99.99,,,0.00,Acu-Link.com,2013-04-12 07:33:00,
2013-04-12 00:48:00,46.0,39.9,29.75,NE,45,0.0,-999.0,79,-99.99,,,0.00,Acu-Link.com,2013-04-12 07:48:00,
2013-04-12 01:06:00,46.0,39.9,29.76,NE,45,0.0,-999.0,79,-99.99,,,0.00,Acu-Link.com,2013-04-12 08:06:00,
2013-04-12 01:21:00,46.0,40.5,29.76,ENE,67,0.0,-999.0,81,-99.99,,,0.00,Acu-Link.com,2013-04-12 08:21:00,
2013-04-12 01:36:00,45.5,41.3,29.76,ESE,112,0.0,-999.0,85,-99.99,,,0.00,Acu-Link.com,2013-04-12 08:36:00,
2013-04-12 01:52:00,44.1,43.6,29.76,ENE,67,0.0,-999.0,98,-99.99,,,0.00,Acu-Link.com,2013-04-12 08:52:00,
2013-04-12 02:07:00,44.1,43.6,29.75,NNE,22,0.0,-999.0,98,-99.99,,,0.00,Acu-Link.com,2013-04-12 09:07:00,
2013-04-12 02:22:00,44.6,44.1,29.74,West,270,0.0,-999.0,98,-99.99,,,0.00,Acu-Link.com,2013-04-12 09:22:00,
2013-04-12 02:37:00,44.1,43.6,29.74,NNE,22,0.0,-999.0,98,-99.99,,,0.00,Acu-Link.com,2013-04-12 09:37:00,
2013-04-12 02:52:00,45.0,44.5,29.74,NE,45,0.0,-999.0,98,-99.99,,,0.00,Acu-Link.com,2013-04-12 09:52:00,
2013-04-12 03:22:00,43.7,43.2,29.73,NE,45,0.0,-999.0,98,-99.99,,,0.00,Acu-Link.com,2013-04-12 10:22:00,
2013-04-12 03:38:00,43.2,42.7,29.73,East,90,0.0,-999.0,98,-99.99,,,0.00,Acu-Link.com,2013-04-12 10:38:00,
2013-04-12 03:53:00,42.3,41.8,29.74,East,90,0.0,-999.0,98,-99.99,,,0.00,Acu-Link.com,2013-04-12 10:53:00,
2013-04-12 04:08:00,41.5,41.0,29.74,East,90,0.0,-999.0,98,-99.99,,,0.00,Acu-Link.com,2013-04-12 11:08:00,
2013-04-12 04:23:00,41.9,41.4,29.73,ENE,67,0.0,-999.0,98,-99.99,,,0.00,Acu-Link.com,2013-04-12 11:23:00,
2013-04-12 04:38:00,42.3,41.8,29.74,NE,45,0.0,-999.0,98,-99.99,,,0.00,Acu-Link.com,2013-04-12 11:38:00,
2013-04-12 04:53:00,43.3,42.8,29.75,West,270,0.0,-999.0,98,-99.99,,,0.00,Acu-Link.com,2013-04-12 11:53:00,
2013-04-12 05:08:00,43.2,42.7,29.75,East,90,0.0,-999.0,98,-99.99,,,0.00,Acu-Link.com,2013-04-12 12:08:00,
2013-04-12 05:23:00,43.9,43.4,29.74,NE,45,0.0,-999.0,98,-99.99,,,0.00,Acu-Link.com,2013-04-12 12:23:00,
2013-04-12 05:39:00,43.3,42.8,29.75,NE,45,0.0,-999.0,98,-99.99,,,0.00,Acu-Link.com,2013-04-12 12:39:00,
2013-04-12 05:54:00,43.5,43.0,29.75,East,90,0.0,-999.0,98,-99.99,,,0.00,Acu-Link.com,2013-04-12 12:54:00,
2013-04-12 06:09:00,42.3,41.8,29.74,East,90,0.0,-999.0,98,-99.99,,,0.00,Acu-Link.com,2013-04-12 13:09:00,
2013-04-12 06:24:00,42.6,42.1,29.75,NE,45,0.0,-999.0,98,-99.99,,,0.00,Acu-Link.com,2013-04-12 13:24:00,
2013-04-12 06:39:00,44.6,43.8,29.75,ENE,67,0.0,-999.0,97,-99.99,,,0.00,Acu-Link.com,2013-04-12 13:39:00,
2013-04-12 06:54:00,43.7,43.2,29.76,NE,45,0.0,-999.0,98,-99.99,,,0.00,Acu-Link.com,2013-04-12 13:54:00,
2013-04-12 07:09:00,43.0,42.5,29.76,SE,135,0.0,-999.0,98,-99.99,,,0.00,Acu-Link.com,2013-04-12 14:09:00,
2013-04-12 07:25:00,42.8,42.3,29.77,NE,45,0.0,-999.0,98,-99.99,,,0.00,Acu-Link.com,2013-04-12 14:25:00,
2013-04-12 07:40:00,43.5,43.0,29.78,West,270,0.0,-999.0,98,-99.99,,,0.00,Acu-Link.com,2013-04-12 14:40:00,
2013-04-12 07:55:00,45.3,44.8,29.78,West,270,0.0,-999.0,98,-99.99,,,0.00,Acu-Link.com,2013-04-12 14:55:00,
2013-04-12 08:10:00,48.0,47.5,29.78,SW,225,0.0,-999.0,98,-99.99,,,0.00,Acu-Link.com,2013-04-12 15:10:00,
2013-04-12 08:25:00,51.1,46.1,29.80,SSW,202,0.0,-999.0,83,-99.99,,,0.00,Acu-Link.com,2013-04-12 15:25:00,
2013-04-12 08:40:00,55.2,43.2,29.79,WSW,247,2.7,-999.0,64,-99.99,,,0.00,Acu-Link.com,2013-04-12 15:40:00,
2013-04-12 08:55:00,57.6,41.1,29.80,West,270,3.7,-999.0,54,-99.99,,,0.00,Acu-Link.com,2013-04-12 15:55:00,
2013-04-12 09:10:00,59.9,40.7,29.80,East,90,5.3,-999.0,49,-99.99,,,0.00,Acu-Link.com,2013-04-12 16:10:00,
2013-04-12 09:25:00,60.8,39.9,29.80,West,270,2.7,-999.0,46,-99.99,,,0.00,Acu-Link.com,2013-04-12 16:25:00,
2013-04-12 09:41:00,62.4,40.2,29.82,ENE,67,4.7,-999.0,44,-99.99,,,0.00,Acu-Link.com,2013-04-12 16:41:00,
2013-04-12 09:56:00,64.0,39.2,29.81,ESE,112,0.0,-999.0,40,-99.99,,,0.00,Acu-Link.com,2013-04-12 16:56:00,
2013-04-12 10:26:00,68.7,37.6,29.83,South,180,3.2,-999.0,32,-99.99,,,0.00,Acu-Link.com,2013-04-12 17:26:00,
2013-04-12 10:41:00,68.9,38.6,29.83,NNE,22,2.7,-999.0,33,-99.99,,,0.00,Acu-Link.com,2013-04-12 17:41:00,
2013-04-12 12:27:00,73.9,31.5,29.82,SSE,157,6.3,-999.0,21,-99.99,,,0.00,Acu-Link.com,2013-04-12 19:27:00,
2013-04-12 12:58:00,76.3,23.6,29.83,South,180,5.8,-999.0,14,-99.99,,,0.00,Acu-Link.com,2013-04-12 19:58:00,
2013-04-12 13:13:00,77.4,20.8,29.81,South,180,3.2,-999.0,12,-99.99,,,0.00,Acu-Link.com,2013-04-12 20:13:00,
2013-04-12 13:28:00,79.9,18.5,29.81,North,0,4.2,-999.0,10,-99.99,,,0.00,Acu-Link.com,2013-04-12 20:28:00,
2013-04-12 13:43:00,80.4,10.7,29.80,NNW,337,0.0,-999.0,7,-99.99,,,0.00,Acu-Link.com,2013-04-12 20:43:00,
2013-04-12 13:58:00,79.7,10.2,29.80,NNW,337,6.3,-999.0,7,-99.99,,,0.00,Acu-Link.com,2013-04-12 20:58:00,
2013-04-12 14:13:00,80.4,3.3,29.79,SW,225,1.7,-999.0,5,-99.99,,,0.00,Acu-Link.com,2013-04-12 21:13:00,
2013-04-12 14:29:00,81.5,-0.7,29.79,West,270,1.7,-999.0,4,-99.99,,,0.00,Acu-Link.com,2013-04-12 21:29:00,
2013-04-12 14:44:00,81.0,-1.0,29.78,West,270,1.1,-999.0,4,-99.99,,,0.00,Acu-Link.com,2013-04-12 21:44:00,
2013-04-12 14:59:00,83.7,-26.6,29.78,SW,225,3.7,-999.0,1,-99.99,,,0.00,Acu-Link.com,2013-04-12 21:59:00,
2013-04-12 15:14:00,80.8,25.4,29.78,SW,225,3.7,-999.0,13,-99.99,,,0.00,Acu-Link.com,2013-04-12 22:14:00,
2013-04-12 15:29:00,79.3,27.6,29.77,SSW,202,4.7,-999.0,15,-99.99,,,0.00,Acu-Link.com,2013-04-12 22:29:00,
2013-04-12 15:44:00,77.2,27.5,29.77,WSW,247,5.8,-999.0,16,-99.99,,,0.00,Acu-Link.com,2013-04-12 22:44:00,
2013-04-12 15:59:00,79.3,33.5,29.77,ESE,112,1.7,-999.0,19,-99.99,,,0.00,Acu-Link.com,2013-04-12 22:59:00,
2013-04-12 16:14:00,77.2,27.5,29.77,WSW,247,4.2,-999.0,16,-99.99,,,0.00,Acu-Link.com,2013-04-12 23:14:00,
2013-04-12 16:29:00,76.8,25.7,29.76,SSW,202,4.7,-999.0,15,-99.99,,,0.00,Acu-Link.com,2013-04-12 23:29:00,
2013-04-12 16:45:00,75.0,28.6,29.75,SW,225,2.2,-999.0,18,-99.99,,,0.00,Acu-Link.com,2013-04-12 23:45:00,
2013-04-12 17:00:00,75.7,24.8,29.76,West,270,2.2,-999.0,15,-99.99,,,0.00,Acu-Link.com,2013-04-13 00:00:00,
2013-04-12 17:15:00,72.1,32.3,29.77,SE,135,3.7,-999.0,23,-99.99,,,0.00,Acu-Link.com,2013-04-13 00:15:00,
2013-04-12 17:30:00,73.2,32.1,29.77,SW,225,3.7,-999.0,22,-99.99,,,0.00,Acu-Link.com,2013-04-13 00:30:00,
2013-04-12 17:45:00,70.7,33.1,29.77,ESE,112,2.7,-999.0,25,-99.99,,,0.00,Acu-Link.com,2013-04-13 00:45:00,
2013-04-12 18:00:00,69.4,28.9,29.77,WSW,247,1.7,-999.0,22,-99.99,,,0.00,Acu-Link.com,2013-04-13 01:00:00,
2013-04-12 18:15:00,68.4,30.2,29.77,ENE,67,3.2,-999.0,24,-99.99,,,0.00,Acu-Link.com,2013-04-13 01:15:00,
2013-04-12 18:30:00,67.3,30.3,29.78,SSW,202,2.2,-999.0,25,-99.99,,,0.00,Acu-Link.com,2013-04-13 01:30:00,
2013-04-12 18:45:00,66.2,29.3,29.77,SSW,202,0.0,-999.0,25,-99.99,,,0.00,Acu-Link.com,2013-04-13 01:45:00,
2013-04-12 19:00:00,63.5,28.9,29.77,West,270,0.0,-999.0,27,-99.99,,,0.00,Acu-Link.com,2013-04-13 02:00:00,
2013-04-12 19:16:00,60.4,31.2,29.78,SW,225,0.0,-999.0,33,-99.99,,,0.00,Acu-Link.com,2013-04-13 02:16:00,
2013-04-12 20:01:00,56.5,31.2,29.79,SSW,202,1.7,-999.0,38,-99.99,,,0.00,Acu-Link.com,2013-04-13 03:01:00,
2013-04-12 20:16:00,55.4,31.5,29.79,West,270,0.0,-999.0,40,-99.99,,,0.00,Acu-Link.com,2013-04-13 03:16:00,
2013-04-12 20:31:00,55.9,30.0,29.80,SSW,202,0.0,-999.0,37,-99.99,,,0.00,Acu-Link.com,2013-04-13 03:31:00,
2013-04-12 20:46:00,55.0,29.9,29.80,ENE,67,0.0,-999.0,38,-99.99,,,0.00,Acu-Link.com,2013-04-13 03:46:00,
2013-04-12 21:01:00,54.3,31.1,29.81,SSW,202,0.0,-999.0,41,-99.99,,,0.00,Acu-Link.com,2013-04-13 04:01:00,
2013-04-12 21:17:00,54.1,31.5,29.81,NW,315,2.2,-999.0,42,-99.99,,,0.00,Acu-Link.com,2013-04-13 04:17:00,
2013-04-12 21:47:00,53.6,33.3,29.82,SSE,157,0.0,-999.0,46,-99.99,,,0.00,Acu-Link.com,2013-04-13 04:47:00,
2013-04-12 22:02:00,53.4,34.2,29.82,SW,225,0.0,-999.0,48,-99.99,,,0.00,Acu-Link.com,2013-04-13 05:02:00,
2013-04-12 22:17:00,53.4,34.7,29.82,ESE,112,0.0,-999.0,49,-99.99,,,0.00,Acu-Link.com,2013-04-13 05:17:00,
2013-04-12 22:32:00,53.6,35.9,29.82,NNW,337,1.7,-999.0,51,-99.99,,,0.00,Acu-Link.com,2013-04-13 05:32:00,
2013-04-12 22:47:00,53.4,35.7,29.82,WNW,292,0.0,-999.0,51,-99.99,,,0.00,Acu-Link.com,2013-04-13 05:47:00,
2013-04-12 23:02:00,52.9,35.8,29.82,SE,135,0.0,-999.0,52,-99.99,,,0.00,Acu-Link.com,2013-04-13 06:02:00,
2013-04-12 23:17:00,52.9,34.3,29.83,SW,225,1.7,-999.0,49,-99.99,,,0.00,Acu-Link.com,2013-04-13 06:17:00,
2013-04-12 23:32:00,52.7,33.6,29.83,SSE,157,0.0,-999.0,48,-99.99,,,0.00,Acu-Link.com,2013-04-13 06:32:00,